createdAt,value
2023-09-08T00:02:35.071Z,4.55
2023-09-08T00:05:01.796Z,4.35
2023-09-08T00:07:28.498Z,4.95
2023-09-08T00:09:55.130Z,4.13
2023-09-08T00:12:22.343Z,4.78
2023-09-08T00:14:48.993Z,4.50
2023-09-08T00:17:15.714Z,4.13
2023-09-08T00:19:42.690Z,5.15
2023-09-08T00:22:09.624Z,4.45
2023-09-08T00:24:36.245Z,4.93
2023-09-08T00:27:02.995Z,4.85
2023-09-08T00:29:29.926Z,3.72
2023-09-08T00:31:56.845Z,4.75
2023-09-08T00:34:23.801Z,4.38
2023-09-08T00:36:50.571Z,4.05
2023-09-08T00:39:17.242Z,4.70
2023-09-08T00:41:43.954Z,4.07
2023-09-08T00:44:12.409Z,3.90
2023-09-08T00:46:40.085Z,4.65
2023-09-08T00:49:07.617Z,4.70
2023-09-08T00:51:36.140Z,4.00
2023-09-08T00:54:02.909Z,5.13
2023-09-08T00:56:30.968Z,4.55
2023-09-08T00:58:57.965Z,4.85
2023-09-08T01:01:24.711Z,4.72
2023-09-08T01:03:51.491Z,4.30
2023-09-08T01:06:18.933Z,4.82
2023-09-08T01:08:46.498Z,4.25
2023-09-08T01:11:13.531Z,4.97
2023-09-08T01:13:40.162Z,4.85
2023-09-08T01:16:08.910Z,4.70
2023-09-08T01:18:36.117Z,4.65
2023-09-08T01:21:33.605Z,4.40
2023-09-08T01:24:20.981Z,4.30
2023-09-08T01:26:48.988Z,4.75
2023-09-08T01:29:17.920Z,4.78
2023-09-08T01:31:45.020Z,4.47
2023-09-08T01:34:13.545Z,4.53
2023-09-08T01:36:40.256Z,4.85
2023-09-08T01:39:06.913Z,4.18
2023-09-08T01:41:33.779Z,5.07
2023-09-08T01:44:01.183Z,4.35
2023-09-08T01:46:27.894Z,4.50
2023-09-08T01:48:54.661Z,4.82
2023-09-08T01:51:21.333Z,5.35
2023-09-08T01:53:48.262Z,4.60
2023-09-08T01:56:14.894Z,4.72
2023-09-08T01:58:41.658Z,4.88
2023-09-08T02:01:08.434Z,4.60
2023-09-08T02:03:35.693Z,4.65
2023-09-08T02:06:02.421Z,4.60
2023-09-08T02:08:29.045Z,4.75
2023-09-08T02:10:55.719Z,4.65
2023-09-08T02:13:23.376Z,5.00
2023-09-08T02:15:50.172Z,4.22
2023-09-08T02:18:16.896Z,4.90
2023-09-08T02:20:43.548Z,4.45
2023-09-08T02:23:10.296Z,4.65
2023-09-08T02:25:36.938Z,5.13
2023-09-08T02:28:04.023Z,4.35
2023-09-08T02:30:31.408Z,4.03
2023-09-08T02:33:00.238Z,4.97
2023-09-08T02:35:27.005Z,4.53
2023-09-08T02:37:55.661Z,4.43
2023-09-08T02:40:22.427Z,4.78
2023-09-08T02:42:50.002Z,3.85
2023-09-08T02:45:16.836Z,4.45
2023-09-08T02:47:43.632Z,4.85
2023-09-08T02:50:10.596Z,4.60
2023-09-08T02:52:37.340Z,3.63
2023-09-08T02:55:04.146Z,3.95
2023-09-08T02:57:30.830Z,4.15
2023-09-08T02:59:57.940Z,4.72
2023-09-08T03:02:33.789Z,4.05
2023-09-08T03:05:01.826Z,4.57
2023-09-08T03:07:29.224Z,4.15
2023-09-08T03:09:55.937Z,3.97
2023-09-08T03:12:22.577Z,3.78
2023-09-08T03:14:49.203Z,3.67
2023-09-08T03:17:15.935Z,4.03
2023-09-08T03:19:46.302Z,3.70
2023-09-08T03:22:13.077Z,4.07
2023-09-08T03:24:39.709Z,4.03
2023-09-08T03:27:06.455Z,3.90
2023-09-08T03:29:33.282Z,4.40
2023-09-08T03:32:00.065Z,4.47
2023-09-08T03:34:27.114Z,4.63
2023-09-08T03:36:54.963Z,4.78
2023-09-08T03:39:21.841Z,4.50
2023-09-08T03:41:48.514Z,3.90
2023-09-08T03:44:15.225Z,5.10
2023-09-08T03:46:41.969Z,4.38
2023-09-08T03:49:09.464Z,4.70
2023-09-08T03:51:36.187Z,4.60
2023-09-08T03:54:04.621Z,3.95
2023-09-08T03:56:31.416Z,4.32
2023-09-08T03:58:58.135Z,3.85
2023-09-08T04:01:25.100Z,3.85
2023-09-08T04:03:51.982Z,3.95
2023-09-08T04:06:18.707Z,4.20
2023-09-08T04:08:45.455Z,4.15
2023-09-08T04:11:12.143Z,4.38
2023-09-08T04:13:38.801Z,4.75
2023-09-08T04:16:05.550Z,4.15
2023-09-08T04:18:32.379Z,4.32
2023-09-08T04:20:59.848Z,4.68
2023-09-08T04:23:26.599Z,4.32
2023-09-08T04:25:53.339Z,4.18
2023-09-08T04:28:20.855Z,4.25
2023-09-08T04:30:47.557Z,4.20
2023-09-08T04:33:14.382Z,4.65
2023-09-08T04:35:41.119Z,4.20
2023-09-08T04:38:08.891Z,4.13
2023-09-08T04:40:35.645Z,4.20
2023-09-08T04:43:02.413Z,3.97
2023-09-08T04:45:29.195Z,4.53
2023-09-08T04:47:55.957Z,4.47
2023-09-08T04:50:22.720Z,4.30
2023-09-08T04:52:50.776Z,4.03
2023-09-08T04:55:18.549Z,4.18
2023-09-08T04:57:45.311Z,4.72
2023-09-08T05:00:13.195Z,4.40
2023-09-08T05:02:48.378Z,4.68
2023-09-08T05:05:15.622Z,4.75
2023-09-08T05:07:42.401Z,3.90
2023-09-08T05:10:09.588Z,4.55
2023-09-08T05:12:38.409Z,4.40
2023-09-08T05:15:11.461Z,4.40
2023-09-08T05:17:39.828Z,4.20
2023-09-08T05:20:07.577Z,4.15
2023-09-08T05:22:34.283Z,4.40
2023-09-08T05:25:01.454Z,4.32
2023-09-08T05:27:28.242Z,4.32
2023-09-08T05:29:55.413Z,4.20
2023-09-08T05:32:22.235Z,4.20
2023-09-08T05:34:48.920Z,4.03
2023-09-08T05:37:15.900Z,4.32
2023-09-08T05:39:43.957Z,4.43
2023-09-08T05:42:10.635Z,4.32
2023-09-08T05:44:37.676Z,4.53
2023-09-08T05:47:04.724Z,4.80
2023-09-08T05:49:31.439Z,4.15
2023-09-08T05:51:58.133Z,4.35
2023-09-08T05:54:24.882Z,3.92
2023-09-08T05:56:51.795Z,4.55
2023-09-08T05:59:18.486Z,4.57
2023-09-08T06:01:45.148Z,4.70
2023-09-08T06:04:12.793Z,4.22
2023-09-08T06:06:39.746Z,4.65
2023-09-08T06:09:08.961Z,4.57
2023-09-08T06:11:36.452Z,4.28
2023-09-08T06:14:03.605Z,4.05
2023-09-08T06:16:36.706Z,4.68
2023-09-08T06:19:04.373Z,4.70
2023-09-08T06:21:31.285Z,4.00
2023-09-08T06:23:58.645Z,3.75
2023-09-08T06:26:25.810Z,4.78
2023-09-08T06:28:53.424Z,4.13
2023-09-08T06:31:20.402Z,4.38
2023-09-08T06:33:47.727Z,4.30
2023-09-08T06:36:14.542Z,4.63
2023-09-08T06:38:41.213Z,4.10
2023-09-08T06:41:12.461Z,4.22
2023-09-08T06:43:39.651Z,4.28
2023-09-08T06:46:13.137Z,4.30
2023-09-08T06:48:39.898Z,4.45
2023-09-08T06:51:06.673Z,4.80
2023-09-08T06:53:34.017Z,4.15
2023-09-08T06:56:00.872Z,4.35
2023-09-08T06:58:27.919Z,4.30
2023-09-08T07:00:55.869Z,4.38
2023-09-08T07:03:24.186Z,4.03
2023-09-08T07:05:52.002Z,4.65
2023-09-08T07:08:19.338Z,4.10
2023-09-08T07:10:53.441Z,3.92
2023-09-08T07:13:20.300Z,4.43
2023-09-08T07:15:46.954Z,4.15
2023-09-08T07:18:13.727Z,4.38
2023-09-08T07:20:40.492Z,4.20
2023-09-08T07:23:07.988Z,4.47
2023-09-08T07:25:35.025Z,5.05
2023-09-08T07:28:01.994Z,3.97
2023-09-08T07:30:28.758Z,4.38
2023-09-08T07:32:55.638Z,3.72
2023-09-08T07:35:24.743Z,3.83
2023-09-08T07:37:51.662Z,3.60
2023-09-08T07:40:18.702Z,4.40
2023-09-08T07:42:45.710Z,3.90
2023-09-08T07:45:14.002Z,4.32
2023-09-08T07:47:40.818Z,4.20
2023-09-08T07:50:17.966Z,4.50
2023-09-08T07:52:44.731Z,4.50
2023-09-08T07:55:11.646Z,4.43
2023-09-08T07:57:38.355Z,4.18
2023-09-08T08:00:05.631Z,4.13
2023-09-08T08:02:51.460Z,3.80
2023-09-08T08:05:18.500Z,4.53
2023-09-08T08:07:45.727Z,4.43
2023-09-08T08:10:13.688Z,4.55
2023-09-08T08:12:41.401Z,4.28
2023-09-08T08:15:10.623Z,4.57
2023-09-08T08:17:38.810Z,4.43
2023-09-08T08:20:10.839Z,4.28
2023-09-08T08:22:38.585Z,4.57
2023-09-08T08:25:06.050Z,4.63
2023-09-08T08:27:32.882Z,4.35
2023-09-08T08:30:01.935Z,4.55
2023-09-08T08:32:29.476Z,3.90
2023-09-08T08:34:56.503Z,4.13
2023-09-08T08:37:23.570Z,4.63
2023-09-08T08:39:50.225Z,4.13
2023-09-08T08:42:17.286Z,4.40
2023-09-08T08:44:45.137Z,4.35
2023-09-08T08:47:12.398Z,4.65
2023-09-08T08:49:43.440Z,5.85
2023-09-08T08:52:10.432Z,4.68
2023-09-08T08:54:40.831Z,4.90
2023-09-08T08:57:12.264Z,4.28
2023-09-08T08:59:39.130Z,4.95
2023-09-08T09:02:06.469Z,4.25
2023-09-08T09:04:34.236Z,4.13
2023-09-08T09:07:01.006Z,4.35
2023-09-08T09:09:27.737Z,4.07
2023-09-08T09:11:54.930Z,4.18
2023-09-08T09:14:21.855Z,4.45
2023-09-08T09:16:48.979Z,4.30
2023-09-08T09:19:28.361Z,4.25
2023-09-08T09:21:56.759Z,3.97
2023-09-08T09:24:39.211Z,4.47
2023-09-08T09:27:09.028Z,4.45
2023-09-08T09:29:46.591Z,4.18
2023-09-08T09:32:14.210Z,4.35
2023-09-08T09:34:52.392Z,4.72
2023-09-08T09:37:19.902Z,5.18
2023-09-08T09:39:56.196Z,5.00
2023-09-08T09:42:24.229Z,5.00
2023-09-08T09:44:52.807Z,4.40
2023-09-08T09:47:20.485Z,4.07
2023-09-08T09:49:48.804Z,5.03
2023-09-08T09:52:24.205Z,5.05
2023-09-08T09:54:55.812Z,4.57
2023-09-08T09:57:24.631Z,4.72
2023-09-08T09:59:52.821Z,4.25
2023-09-08T10:02:21.806Z,4.55
2023-09-08T10:04:52.422Z,4.75
2023-09-08T10:07:19.603Z,4.38
2023-09-08T10:09:47.756Z,4.68
2023-09-08T10:12:16.996Z,4.53
2023-09-08T10:14:44.498Z,5.20
2023-09-08T10:17:18.204Z,4.57
2023-09-08T10:22:21.233Z,4.43
2023-09-08T10:24:51.384Z,5.10
2023-09-08T10:27:21.523Z,4.53
2023-09-08T10:29:49.307Z,4.68
2023-09-08T10:32:17.769Z,4.90
2023-09-08T10:34:45.989Z,4.82
2023-09-08T10:37:22.804Z,4.75
2023-09-08T10:39:49.645Z,4.82
2023-09-08T10:42:19.782Z,4.45
2023-09-08T10:44:49.261Z,4.88
2023-09-08T10:47:25.679Z,4.68
2023-09-08T10:50:00.656Z,4.82
2023-09-08T10:52:28.436Z,4.63
2023-09-08T10:54:56.998Z,5.22
2023-09-08T10:57:25.767Z,4.95
2023-09-08T10:59:55.286Z,4.70
2023-09-08T11:02:52.027Z,4.55
2023-09-08T11:05:21.011Z,4.88
2023-09-08T11:07:50.883Z,5.03
2023-09-08T11:10:17.583Z,4.47
2023-09-08T11:12:44.265Z,4.43
2023-09-08T11:15:11.336Z,5.35
2023-09-08T11:17:43.358Z,4.78
2023-09-08T11:22:40.662Z,5.05
2023-09-08T11:25:09.247Z,4.45
2023-09-08T11:27:36.067Z,4.43
2023-09-08T11:30:02.907Z,4.38
2023-09-08T11:32:36.949Z,4.43
2023-09-08T11:35:09.128Z,4.78
2023-09-08T11:37:40.210Z,4.50
2023-09-08T11:40:15.514Z,4.72
2023-09-08T11:42:46.874Z,5.18
2023-09-08T11:45:24.552Z,5.00
2023-09-08T11:47:51.517Z,5.07
2023-09-08T11:50:19.971Z,4.70
2023-09-08T11:52:48.879Z,4.47
2023-09-08T11:55:16.370Z,4.55
2023-09-08T11:57:45.306Z,4.35
2023-09-08T12:00:17.438Z,4.28
2023-09-08T12:02:47.935Z,4.45
2023-09-08T12:05:23.784Z,4.57
2023-09-08T12:07:59.747Z,4.78
2023-09-08T12:10:26.751Z,4.72
2023-09-08T12:12:55.750Z,5.25
2023-09-08T12:15:35.273Z,5.03
2023-09-08T12:18:04.345Z,4.82
2023-09-08T12:20:31.814Z,5.07
2023-09-08T12:23:03.384Z,4.70
2023-09-08T12:25:32.926Z,4.28
2023-09-08T12:28:00.868Z,4.80
2023-09-08T12:30:33.814Z,4.65
2023-09-08T12:33:02.664Z,4.47
2023-09-08T12:35:32.406Z,4.53
2023-09-08T12:38:01.484Z,4.53
2023-09-08T12:40:29.873Z,4.68
2023-09-08T12:42:59.328Z,4.57
2023-09-08T12:45:29.720Z,4.35
2023-09-08T12:48:02.716Z,4.15
2023-09-08T12:50:30.116Z,4.80
2023-09-08T12:52:58.076Z,4.82
2023-09-08T12:55:25.155Z,4.68
2023-09-08T12:57:55.592Z,4.00
2023-09-08T13:00:26.329Z,4.55
2023-09-08T13:02:53.214Z,4.57
2023-09-08T13:05:20.218Z,4.53
2023-09-08T13:07:46.909Z,4.72
2023-09-08T13:10:13.662Z,4.40
2023-09-08T13:12:40.715Z,4.50
2023-09-08T13:15:08.089Z,4.60
2023-09-08T13:17:34.774Z,4.68
2023-09-08T13:20:02.412Z,3.88
2023-09-08T13:22:29.120Z,4.40
2023-09-08T13:24:56.208Z,5.45
2023-09-08T13:27:22.904Z,4.65
2023-09-08T13:29:49.754Z,4.85
2023-09-08T13:32:16.750Z,4.28
2023-09-08T13:34:44.806Z,4.63
2023-09-08T13:37:11.675Z,5.22
2023-09-08T13:39:38.548Z,4.82
2023-09-08T13:42:20.076Z,4.57
2023-09-08T13:44:46.836Z,4.88
2023-09-08T13:47:13.735Z,4.60
2023-09-08T13:49:41.548Z,5.20
2023-09-08T13:52:08.982Z,4.93
2023-09-08T13:54:36.057Z,4.78
2023-09-08T13:59:35.656Z,4.88
2023-09-08T14:04:35.296Z,5.30
2023-09-08T14:07:09.268Z,4.65
2023-09-08T14:09:53.794Z,5.30
2023-09-08T14:17:19.819Z,5.07
2023-09-08T14:19:46.470Z,5.20
2023-09-08T14:22:13.725Z,5.22
2023-09-08T14:24:40.397Z,5.43
2023-09-08T14:27:07.027Z,5.30
2023-09-08T14:29:35.233Z,5.32
2023-09-08T14:32:02.151Z,5.45
2023-09-08T14:34:28.927Z,5.40
2023-09-08T14:36:55.964Z,5.20
2023-09-08T14:39:22.699Z,5.22
2023-09-08T14:41:51.593Z,5.90
2023-09-08T14:44:18.437Z,5.18
2023-09-08T14:46:45.180Z,6.63
2023-09-08T14:49:15.297Z,5.40
2023-09-08T14:51:42.458Z,4.90
2023-09-08T14:54:09.227Z,5.25
2023-09-08T14:56:35.935Z,5.78
2023-09-08T14:59:02.562Z,5.38
2023-09-08T15:01:29.262Z,6.05
2023-09-08T15:03:56.921Z,5.05
2023-09-08T15:06:25.305Z,5.65
2023-09-08T15:08:54.260Z,5.57
2023-09-08T15:11:20.892Z,5.72
2023-09-08T15:13:47.537Z,5.00
2023-09-08T15:16:15.855Z,4.82
2023-09-08T15:18:42.867Z,4.95
2023-09-08T15:21:09.843Z,4.97
2023-09-08T15:23:37.103Z,5.35
2023-09-08T15:26:04.539Z,5.25
2023-09-08T15:28:31.714Z,5.13
2023-09-08T15:30:58.564Z,4.80
2023-09-08T15:33:25.744Z,6.60
2023-09-08T15:35:53.542Z,5.22
2023-09-08T15:38:21.306Z,4.82
2023-09-08T15:41:06.841Z,5.25
2023-09-08T15:43:34.437Z,5.40
2023-09-08T15:46:01.326Z,5.75
2023-09-08T15:48:28.085Z,5.80
2023-09-08T15:50:54.707Z,5.40
2023-09-08T15:53:21.353Z,5.00
2023-09-08T15:55:48.025Z,5.07
2023-09-08T15:58:14.808Z,5.32
2023-09-08T16:00:41.847Z,5.13
2023-09-08T16:03:31.532Z,4.72
2023-09-08T16:05:58.758Z,4.90
2023-09-08T16:08:25.600Z,4.60
2023-09-08T16:10:52.888Z,4.55
2023-09-08T16:13:21.175Z,5.13
2023-09-08T16:15:47.980Z,4.40
2023-09-08T16:18:14.631Z,4.78
2023-09-08T16:20:41.318Z,4.50
2023-09-08T16:23:08.618Z,4.40
2023-09-08T16:25:35.477Z,4.40
2023-09-08T16:28:02.320Z,5.32
2023-09-08T16:30:30.092Z,4.38
2023-09-08T16:32:56.923Z,4.43
2023-09-08T16:35:23.695Z,4.45
2023-09-08T16:37:50.446Z,4.18
2023-09-08T16:40:17.290Z,4.93
2023-09-08T16:42:43.999Z,4.32
2023-09-08T16:45:12.185Z,5.28
2023-09-08T16:47:40.473Z,5.15
2023-09-08T16:50:07.761Z,4.82
2023-09-08T16:52:34.598Z,4.63
2023-09-08T16:55:01.290Z,4.85
2023-09-08T16:57:27.904Z,4.88
2023-09-08T16:59:54.622Z,4.88
2023-09-08T17:02:21.394Z,5.40
2023-09-08T17:04:50.215Z,4.45
2023-09-08T17:07:17.025Z,4.47
2023-09-08T17:09:43.960Z,4.75
2023-09-08T17:12:10.909Z,4.28
2023-09-08T17:14:37.911Z,4.70
2023-09-08T17:17:04.843Z,4.60
2023-09-08T17:19:31.679Z,4.78
2023-09-08T17:21:59.414Z,3.80
2023-09-08T17:24:27.292Z,4.50
2023-09-08T17:26:58.219Z,4.25
2023-09-08T17:29:24.942Z,4.15
2023-09-08T17:31:51.647Z,4.78
2023-09-08T17:34:21.176Z,4.45
2023-09-08T17:36:56.873Z,4.65
2023-09-08T17:39:24.359Z,4.55
2023-09-08T17:41:51.083Z,4.95
2023-09-08T17:44:18.608Z,4.57
2023-09-08T17:46:45.638Z,4.43
2023-09-08T17:49:12.402Z,4.50
2023-09-08T17:51:39.056Z,4.03
2023-09-08T17:54:05.809Z,4.53
2023-09-08T17:56:33.448Z,5.13
2023-09-08T17:59:00.048Z,4.85
2023-09-08T18:01:26.846Z,4.45
2023-09-08T18:03:53.753Z,4.45
2023-09-08T18:06:20.627Z,4.10
2023-09-08T18:08:51.449Z,4.30
2023-09-08T18:11:20.794Z,4.15
2023-09-08T18:13:48.705Z,3.72
2023-09-08T18:16:15.460Z,3.83
2023-09-08T18:18:44.193Z,4.57
2023-09-08T18:21:10.874Z,4.78
2023-09-08T18:23:38.467Z,4.50
2023-09-08T18:26:05.701Z,4.20
2023-09-08T18:28:32.376Z,4.38
2023-09-08T18:30:59.143Z,4.30
2023-09-08T18:33:26.525Z,4.88
2023-09-08T18:35:53.427Z,4.50
2023-09-08T18:38:20.169Z,5.18
2023-09-08T18:40:47.362Z,5.05
2023-09-08T18:43:15.595Z,4.57
2023-09-08T18:45:44.992Z,4.78
2023-09-08T18:48:12.052Z,4.47
2023-09-08T18:50:38.793Z,4.93
2023-09-08T18:53:05.521Z,4.43
2023-09-08T18:55:32.276Z,4.47
2023-09-08T18:57:58.960Z,4.80
2023-09-08T19:00:25.625Z,4.63
2023-09-08T19:02:52.569Z,4.88
2023-09-08T19:05:19.442Z,4.32
2023-09-08T19:07:46.308Z,4.80
2023-09-08T19:10:13.140Z,4.50
2023-09-08T19:12:39.760Z,4.93
2023-09-08T19:15:06.871Z,4.80
2023-09-08T19:17:33.790Z,4.90
2023-09-08T19:20:00.505Z,4.82
2023-09-08T19:22:27.154Z,4.95
2023-09-08T19:24:53.891Z,4.47
2023-09-08T19:27:20.589Z,5.03
2023-09-08T19:29:51.169Z,4.95
2023-09-08T19:32:18.165Z,5.30
2023-09-08T19:34:44.853Z,5.07
2023-09-08T19:37:11.581Z,5.28
2023-09-08T19:39:38.450Z,5.55
2023-09-08T19:42:05.416Z,4.95
2023-09-08T19:44:32.692Z,4.65
2023-09-08T19:46:59.472Z,5.28
2023-09-08T19:49:26.219Z,5.40
2023-09-08T19:51:52.859Z,5.07
2023-09-08T19:54:19.630Z,5.18
2023-09-08T19:56:46.220Z,5.28
2023-09-08T19:59:13.296Z,4.93
2023-09-08T20:01:39.966Z,5.15
2023-09-08T20:04:06.888Z,4.60
2023-09-08T20:06:33.591Z,4.93
2023-09-08T20:09:00.309Z,5.03
2023-09-08T20:11:27.286Z,4.68
2023-09-08T20:13:55.181Z,4.90
2023-09-08T20:16:21.976Z,5.35
2023-09-08T20:18:48.715Z,4.68
2023-09-08T20:21:15.364Z,5.07
2023-09-08T20:23:42.200Z,5.15
2023-09-08T20:26:09.830Z,5.25
2023-09-08T20:28:36.537Z,4.88
2023-09-08T20:33:32.937Z,4.70
2023-09-08T20:35:59.591Z,4.95
2023-09-08T20:38:26.331Z,5.20
2023-09-08T20:40:53.588Z,4.50
2023-09-08T20:43:24.344Z,5.05
2023-09-08T20:45:55.002Z,5.32
2023-09-08T20:48:22.931Z,5.10
2023-09-08T20:50:59.741Z,5.30
2023-09-08T20:53:26.428Z,5.22
2023-09-08T20:55:54.123Z,4.82
2023-09-08T20:58:21.049Z,4.88
2023-09-08T21:00:47.755Z,5.03
2023-09-08T21:03:23.877Z,5.90
2023-09-08T21:05:51.649Z,5.10
2023-09-08T21:08:21.970Z,4.93
2023-09-08T21:10:49.013Z,4.82
2023-09-08T21:13:16.319Z,5.35
2023-09-08T21:15:43.573Z,5.78
2023-09-08T21:18:10.470Z,5.45
2023-09-08T21:20:37.599Z,5.25
2023-09-08T21:23:04.485Z,5.43
2023-09-08T21:25:35.353Z,5.57
2023-09-08T21:28:02.885Z,5.43
2023-09-08T21:30:30.220Z,5.47
2023-09-08T21:32:57.078Z,5.30
2023-09-08T21:35:23.952Z,5.57
2023-09-08T21:37:50.609Z,5.38
2023-09-08T21:40:17.362Z,5.93
2023-09-08T21:42:44.151Z,5.30
2023-09-08T21:45:11.186Z,5.13
2023-09-08T21:47:37.883Z,5.25
2023-09-08T21:50:04.937Z,5.25
2023-09-08T21:52:38.356Z,5.82
2023-09-08T21:55:07.421Z,5.22
2023-09-08T21:57:34.359Z,5.38
2023-09-08T22:00:00.987Z,4.93
2023-09-08T22:02:28.545Z,5.60
2023-09-08T22:04:55.795Z,4.90
2023-09-08T22:07:23.048Z,5.25
2023-09-08T22:09:52.930Z,5.18
2023-09-08T22:12:20.421Z,5.30
2023-09-08T22:14:49.971Z,5.30
2023-09-08T22:17:17.608Z,5.10
2023-09-08T22:19:44.393Z,5.43
2023-09-08T22:22:11.474Z,5.38
2023-09-08T22:24:38.822Z,5.10
2023-09-08T22:27:05.581Z,5.13
2023-09-08T22:29:33.721Z,5.32
2023-09-08T22:32:00.661Z,5.43
2023-09-08T22:34:28.200Z,5.43
2023-09-08T22:36:55.222Z,5.45
2023-09-08T22:39:21.955Z,5.80
2023-09-08T22:41:48.696Z,5.15
2023-09-08T22:44:15.459Z,4.88
2023-09-08T22:46:42.194Z,5.30
2023-09-08T22:49:09.066Z,5.57
2023-09-08T22:51:35.785Z,4.97
2023-09-08T22:54:03.868Z,5.18
2023-09-08T22:56:30.832Z,5.50
2023-09-08T22:58:57.525Z,5.43
2023-09-08T23:01:24.987Z,5.65
2023-09-08T23:03:51.884Z,5.85
2023-09-08T23:06:19.608Z,5.50
2023-09-08T23:08:46.393Z,5.55
2023-09-08T23:11:13.660Z,5.97
2023-09-08T23:13:40.787Z,4.97
2023-09-08T23:16:12.489Z,5.05
2023-09-08T23:18:39.231Z,5.05
2023-09-08T23:21:05.914Z,5.22
2023-09-08T23:23:32.638Z,5.05
2023-09-08T23:25:59.250Z,5.57
2023-09-08T23:28:26.134Z,5.28
2023-09-08T23:30:52.916Z,5.55
2023-09-08T23:33:19.659Z,5.50
2023-09-08T23:35:46.259Z,5.63
2023-09-08T23:38:12.893Z,4.75
2023-09-08T23:40:39.505Z,5.63
2023-09-08T23:43:06.189Z,5.13
2023-09-08T23:45:33.737Z,5.45
2023-09-08T23:48:00.627Z,5.72
2023-09-08T23:50:53.715Z,5.68
2023-09-08T23:53:21.254Z,5.90
2023-09-08T23:55:49.139Z,5.45
2023-09-08T23:58:16.602Z,6.18
